sensor_id;sensor_type;location;lat;lon;timestamp;P1;durP1;ratioP1;P2;durP2;ratioP2
76115;SDS011;64847;45.778;12.802;2023-04-19T00:00:50;4.23;;;3.90;;
76115;SDS011;64847;45.778;12.802;2023-04-19T00:03:16;4.13;;;3.73;;
76115;SDS011;64847;45.778;12.802;2023-04-19T00:05:41;4.00;;;3.77;;
76115;SDS011;64847;45.778;12.802;2023-04-19T00:08:07;3.77;;;3.47;;
76115;SDS011;64847;45.778;12.802;2023-04-19T00:10:32;4.20;;;3.90;;
76115;SDS011;64847;45.778;12.802;2023-04-19T00:12:59;3.63;;;3.33;;
76115;SDS011;64847;45.778;12.802;2023-04-19T00:15:25;4.20;;;3.90;;
76115;SDS011;64847;45.778;12.802;2023-04-19T00:17:50;4.40;;;4.07;;
76115;SDS011;64847;45.778;12.802;2023-04-19T00:20:16;4.30;;;4.00;;
76115;SDS011;64847;45.778;12.802;2023-04-19T00:22:41;4.03;;;3.73;;
76115;SDS011;64847;45.778;12.802;2023-04-19T00:25:07;4.00;;;3.70;;
76115;SDS011;64847;45.778;12.802;2023-04-19T00:27:32;4.33;;;4.03;;
76115;SDS011;64847;45.778;12.802;2023-04-19T00:29:58;4.00;;;3.70;;
76115;SDS011;64847;45.778;12.802;2023-04-19T00:32:23;3.90;;;3.50;;
76115;SDS011;64847;45.778;12.802;2023-04-19T00:34:48;4.30;;;4.00;;
76115;SDS011;64847;45.778;12.802;2023-04-19T00:37:14;4.43;;;4.07;;
76115;SDS011;64847;45.778;12.802;2023-04-19T00:39:39;4.40;;;4.10;;
76115;SDS011;64847;45.778;12.802;2023-04-19T00:42:05;4.57;;;4.27;;
76115;SDS011;64847;45.778;12.802;2023-04-19T00:44:30;4.60;;;4.27;;
76115;SDS011;64847;45.778;12.802;2023-04-19T00:46:56;4.37;;;4.07;;
76115;SDS011;64847;45.778;12.802;2023-04-19T00:49:21;4.60;;;4.30;;
76115;SDS011;64847;45.778;12.802;2023-04-19T00:51:47;4.20;;;3.90;;
76115;SDS011;64847;45.778;12.802;2023-04-19T00:54:14;4.33;;;4.03;;
76115;SDS011;64847;45.778;12.802;2023-04-19T00:56:40;3.77;;;3.57;;
76115;SDS011;64847;45.778;12.802;2023-04-19T00:59:05;4.40;;;4.10;;
76115;SDS011;64847;45.778;12.802;2023-04-19T01:01:32;4.10;;;3.80;;
76115;SDS011;64847;45.778;12.802;2023-04-19T01:03:58;3.80;;;3.50;;
76115;SDS011;64847;45.778;12.802;2023-04-19T01:06:25;4.43;;;4.00;;
76115;SDS011;64847;45.778;12.802;2023-04-19T01:08:52;4.00;;;3.70;;
76115;SDS011;64847;45.778;12.802;2023-04-19T01:11:17;4.13;;;3.77;;
76115;SDS011;64847;45.778;12.802;2023-04-19T01:13:43;3.93;;;3.63;;
76115;SDS011;64847;45.778;12.802;2023-04-19T01:16:08;4.10;;;3.80;;
76115;SDS011;64847;45.778;12.802;2023-04-19T01:18:34;4.83;;;4.00;;
76115;SDS011;64847;45.778;12.802;2023-04-19T01:21:02;4.83;;;3.80;;
76115;SDS011;64847;45.778;12.802;2023-04-19T01:23:29;4.40;;;4.00;;
76115;SDS011;64847;45.778;12.802;2023-04-19T01:25:54;4.27;;;3.87;;
76115;SDS011;64847;45.778;12.802;2023-04-19T01:28:20;4.70;;;4.27;;
76115;SDS011;64847;45.778;12.802;2023-04-19T01:30:45;4.63;;;4.23;;
76115;SDS011;64847;45.778;12.802;2023-04-19T01:33:10;5.07;;;4.57;;
76115;SDS011;64847;45.778;12.802;2023-04-19T01:35:36;4.63;;;4.30;;
76115;SDS011;64847;45.778;12.802;2023-04-19T01:38:01;4.27;;;3.97;;
76115;SDS011;64847;45.778;12.802;2023-04-19T01:40:27;4.03;;;3.70;;
76115;SDS011;64847;45.778;12.802;2023-04-19T01:42:52;4.47;;;4.10;;
76115;SDS011;64847;45.778;12.802;2023-04-19T01:45:18;4.40;;;4.00;;
76115;SDS011;64847;45.778;12.802;2023-04-19T01:47:43;4.47;;;4.17;;
76115;SDS011;64847;45.778;12.802;2023-04-19T01:50:09;4.07;;;3.77;;
76115;SDS011;64847;45.778;12.802;2023-04-19T01:52:34;3.93;;;3.63;;
76115;SDS011;64847;45.778;12.802;2023-04-19T01:55:00;3.70;;;3.50;;
76115;SDS011;64847;45.778;12.802;2023-04-19T01:57:25;4.17;;;3.87;;
76115;SDS011;64847;45.778;12.802;2023-04-19T01:59:51;4.27;;;3.97;;
76115;SDS011;64847;45.778;12.802;2023-04-19T02:02:17;4.40;;;4.00;;
76115;SDS011;64847;45.778;12.802;2023-04-19T02:04:43;4.53;;;4.13;;
76115;SDS011;64847;45.778;12.802;2023-04-19T02:07:08;4.10;;;3.80;;
76115;SDS011;64847;45.778;12.802;2023-04-19T02:09:34;3.87;;;3.60;;
76115;SDS011;64847;45.778;12.802;2023-04-19T02:12:00;3.87;;;3.57;;
76115;SDS011;64847;45.778;12.802;2023-04-19T02:14:26;3.63;;;3.43;;
76115;SDS011;64847;45.778;12.802;2023-04-19T02:16:51;3.30;;;3.10;;
76115;SDS011;64847;45.778;12.802;2023-04-19T02:19:17;3.70;;;3.40;;
76115;SDS011;64847;45.778;12.802;2023-04-19T02:21:42;3.57;;;3.37;;
76115;SDS011;64847;45.778;12.802;2023-04-19T02:24:09;3.30;;;3.10;;
76115;SDS011;64847;45.778;12.802;2023-04-19T02:26:34;3.00;;;2.80;;
76115;SDS011;64847;45.778;12.802;2023-04-19T02:28:59;2.67;;;2.57;;
76115;SDS011;64847;45.778;12.802;2023-04-19T02:31:25;3.43;;;3.13;;
76115;SDS011;64847;45.778;12.802;2023-04-19T02:33:50;3.40;;;3.20;;
76115;SDS011;64847;45.778;12.802;2023-04-19T02:36:16;2.87;;;2.77;;
76115;SDS011;64847;45.778;12.802;2023-04-19T02:38:41;3.60;;;3.30;;
76115;SDS011;64847;45.778;12.802;2023-04-19T02:41:06;3.33;;;3.13;;
76115;SDS011;64847;45.778;12.802;2023-04-19T02:43:32;3.57;;;3.37;;
76115;SDS011;64847;45.778;12.802;2023-04-19T02:45:57;3.73;;;3.43;;
76115;SDS011;64847;45.778;12.802;2023-04-19T02:48:22;3.83;;;3.47;;
76115;SDS011;64847;45.778;12.802;2023-04-19T02:50:48;3.90;;;3.50;;
76115;SDS011;64847;45.778;12.802;2023-04-19T02:53:13;3.73;;;3.43;;
76115;SDS011;64847;45.778;12.802;2023-04-19T02:55:39;4.17;;;3.53;;
76115;SDS011;64847;45.778;12.802;2023-04-19T02:58:04;4.40;;;4.10;;
76115;SDS011;64847;45.778;12.802;2023-04-19T03:00:30;4.50;;;4.10;;
76115;SDS011;64847;45.778;12.802;2023-04-19T03:02:55;4.97;;;4.57;;
76115;SDS011;64847;45.778;12.802;2023-04-19T03:05:21;5.37;;;4.87;;
76115;SDS011;64847;45.778;12.802;2023-04-19T03:07:47;5.90;;;4.63;;
76115;SDS011;64847;45.778;12.802;2023-04-19T03:10:13;5.37;;;4.87;;
76115;SDS011;64847;45.778;12.802;2023-04-19T03:12:38;6.00;;;5.40;;
76115;SDS011;64847;45.778;12.802;2023-04-19T03:15:04;5.90;;;5.33;;
76115;SDS011;64847;45.778;12.802;2023-04-19T03:17:30;5.73;;;5.23;;
76115;SDS011;64847;45.778;12.802;2023-04-19T03:19:55;5.93;;;5.30;;
76115;SDS011;64847;45.778;12.802;2023-04-19T03:22:21;6.13;;;5.63;;
76115;SDS011;64847;45.778;12.802;2023-04-19T03:24:46;6.60;;;5.93;;
76115;SDS011;64847;45.778;12.802;2023-04-19T03:27:12;5.97;;;5.37;;
76115;SDS011;64847;45.778;12.802;2023-04-19T03:29:37;5.83;;;5.43;;
76115;SDS011;64847;45.778;12.802;2023-04-19T03:32:02;5.87;;;5.37;;
76115;SDS011;64847;45.778;12.802;2023-04-19T03:34:28;6.80;;;5.97;;
76115;SDS011;64847;45.778;12.802;2023-04-19T03:36:53;6.70;;;6.10;;
76115;SDS011;64847;45.778;12.802;2023-04-19T03:39:19;6.37;;;5.87;;
76115;SDS011;64847;45.778;12.802;2023-04-19T03:41:44;6.50;;;5.93;;
76115;SDS011;64847;45.778;12.802;2023-04-19T03:44:09;6.50;;;5.90;;
76115;SDS011;64847;45.778;12.802;2023-04-19T03:46:35;6.83;;;6.23;;
76115;SDS011;64847;45.778;12.802;2023-04-19T03:49:00;6.93;;;5.63;;
76115;SDS011;64847;45.778;12.802;2023-04-19T03:51:25;6.03;;;5.53;;
76115;SDS011;64847;45.778;12.802;2023-04-19T03:53:51;5.93;;;5.43;;
76115;SDS011;64847;45.778;12.802;2023-04-19T03:56:17;5.77;;;5.37;;
76115;SDS011;64847;45.778;12.802;2023-04-19T03:58:42;6.70;;;6.00;;
76115;SDS011;64847;45.778;12.802;2023-04-19T04:01:07;6.33;;;5.80;;
76115;SDS011;64847;45.778;12.802;2023-04-19T04:03:41;6.17;;;5.67;;
76115;SDS011;64847;45.778;12.802;2023-04-19T04:06:07;5.67;;;5.20;;
76115;SDS011;64847;45.778;12.802;2023-04-19T04:08:32;6.10;;;5.57;;
76115;SDS011;64847;45.778;12.802;2023-04-19T04:10:57;6.13;;;5.53;;
76115;SDS011;64847;45.778;12.802;2023-04-19T04:13:23;5.57;;;5.10;;
76115;SDS011;64847;45.778;12.802;2023-04-19T04:15:48;6.13;;;5.63;;
76115;SDS011;64847;45.778;12.802;2023-04-19T04:18:14;6.67;;;6.07;;
76115;SDS011;64847;45.778;12.802;2023-04-19T04:20:42;6.27;;;5.67;;
76115;SDS011;64847;45.778;12.802;2023-04-19T04:23:07;6.50;;;5.90;;
76115;SDS011;64847;45.778;12.802;2023-04-19T04:25:34;6.33;;;5.70;;
76115;SDS011;64847;45.778;12.802;2023-04-19T04:28:01;5.70;;;5.20;;
76115;SDS011;64847;45.778;12.802;2023-04-19T04:30:28;5.70;;;5.20;;
76115;SDS011;64847;45.778;12.802;2023-04-19T04:32:53;6.30;;;5.80;;
76115;SDS011;64847;45.778;12.802;2023-04-19T04:35:21;6.07;;;5.47;;
76115;SDS011;64847;45.778;12.802;2023-04-19T04:37:47;7.00;;;6.20;;
76115;SDS011;64847;45.778;12.802;2023-04-19T04:40:12;7.20;;;6.50;;
76115;SDS011;64847;45.778;12.802;2023-04-19T04:42:38;7.37;;;6.13;;
76115;SDS011;64847;45.778;12.802;2023-04-19T04:45:04;7.03;;;6.33;;
76115;SDS011;64847;45.778;12.802;2023-04-19T04:47:30;6.53;;;5.93;;
76115;SDS011;64847;45.778;12.802;2023-04-19T04:49:56;5.53;;;5.03;;
76115;SDS011;64847;45.778;12.802;2023-04-19T04:52:21;7.93;;;6.13;;
76115;SDS011;64847;45.778;12.802;2023-04-19T04:54:47;5.73;;;5.20;;
76115;SDS011;64847;45.778;12.802;2023-04-19T04:57:12;5.83;;;5.33;;
76115;SDS011;64847;45.778;12.802;2023-04-19T04:59:38;6.20;;;5.70;;
76115;SDS011;64847;45.778;12.802;2023-04-19T05:02:03;6.33;;;5.73;;
76115;SDS011;64847;45.778;12.802;2023-04-19T05:04:28;7.27;;;5.73;;
76115;SDS011;64847;45.778;12.802;2023-04-19T05:06:57;6.37;;;5.77;;
76115;SDS011;64847;45.778;12.802;2023-04-19T05:09:22;5.13;;;4.73;;
76115;SDS011;64847;45.778;12.802;2023-04-19T05:11:47;5.40;;;4.90;;
76115;SDS011;64847;45.778;12.802;2023-04-19T05:14:13;6.23;;;5.73;;
76115;SDS011;64847;45.778;12.802;2023-04-19T05:16:38;5.63;;;5.13;;
76115;SDS011;64847;45.778;12.802;2023-04-19T05:19:04;5.33;;;4.93;;
76115;SDS011;64847;45.778;12.802;2023-04-19T05:21:29;5.70;;;5.20;;
76115;SDS011;64847;45.778;12.802;2023-04-19T05:23:54;5.77;;;5.27;;
76115;SDS011;64847;45.778;12.802;2023-04-19T05:26:20;5.67;;;5.27;;
76115;SDS011;64847;45.778;12.802;2023-04-19T05:28:45;5.17;;;4.77;;
76115;SDS011;64847;45.778;12.802;2023-04-19T05:31:11;5.30;;;4.87;;
76115;SDS011;64847;45.778;12.802;2023-04-19T05:33:36;5.57;;;4.97;;
76115;SDS011;64847;45.778;12.802;2023-04-19T05:36:02;5.47;;;4.97;;
76115;SDS011;64847;45.778;12.802;2023-04-19T05:38:28;5.27;;;4.77;;
76115;SDS011;64847;45.778;12.802;2023-04-19T05:40:53;4.80;;;4.40;;
76115;SDS011;64847;45.778;12.802;2023-04-19T05:43:18;4.77;;;4.40;;
76115;SDS011;64847;45.778;12.802;2023-04-19T05:45:44;5.10;;;4.37;;
76115;SDS011;64847;45.778;12.802;2023-04-19T05:48:09;4.83;;;4.43;;
76115;SDS011;64847;45.778;12.802;2023-04-19T05:50:35;5.50;;;4.60;;
76115;SDS011;64847;45.778;12.802;2023-04-19T05:53:01;5.37;;;4.87;;
76115;SDS011;64847;45.778;12.802;2023-04-19T05:55:26;6.80;;;5.00;;
76115;SDS011;64847;45.778;12.802;2023-04-19T05:57:52;5.03;;;4.63;;
76115;SDS011;64847;45.778;12.802;2023-04-19T06:00:17;5.30;;;4.67;;
76115;SDS011;64847;45.778;12.802;2023-04-19T06:02:43;4.83;;;4.43;;
76115;SDS011;64847;45.778;12.802;2023-04-19T06:05:08;5.00;;;4.60;;
76115;SDS011;64847;45.778;12.802;2023-04-19T06:07:34;4.07;;;3.77;;
76115;SDS011;64847;45.778;12.802;2023-04-19T06:10:00;4.40;;;4.10;;
76115;SDS011;64847;45.778;12.802;2023-04-19T06:12:25;4.13;;;3.83;;
76115;SDS011;64847;45.778;12.802;2023-04-19T06:14:51;5.07;;;4.67;;
76115;SDS011;64847;45.778;12.802;2023-04-19T06:17:16;4.00;;;3.70;;
76115;SDS011;64847;45.778;12.802;2023-04-19T06:19:47;4.20;;;3.90;;
76115;SDS011;64847;45.778;12.802;2023-04-19T06:22:12;4.07;;;3.77;;
76115;SDS011;64847;45.778;12.802;2023-04-19T06:24:38;3.43;;;3.23;;
76115;SDS011;64847;45.778;12.802;2023-04-19T06:27:03;3.27;;;3.07;;
76115;SDS011;64847;45.778;12.802;2023-04-19T06:29:29;3.20;;;3.00;;
76115;SDS011;64847;45.778;12.802;2023-04-19T06:31:54;3.77;;;3.47;;
76115;SDS011;64847;45.778;12.802;2023-04-19T06:34:20;2.97;;;2.80;;
76115;SDS011;64847;45.778;12.802;2023-04-19T06:36:45;3.05;;;2.85;;
76115;SDS011;64847;45.778;12.802;2023-04-19T06:39:10;2.80;;;2.65;;
76115;SDS011;64847;45.778;12.802;2023-04-19T06:41:36;2.55;;;2.45;;
76115;SDS011;64847;45.778;12.802;2023-04-19T06:44:01;2.60;;;2.40;;
76115;SDS011;64847;45.778;12.802;2023-04-19T06:46:27;2.35;;;2.25;;
76115;SDS011;64847;45.778;12.802;2023-04-19T06:48:52;2.58;;;2.47;;
76115;SDS011;64847;45.778;12.802;2023-04-19T06:51:18;2.38;;;2.28;;
76115;SDS011;64847;45.778;12.802;2023-04-19T06:53:43;2.10;;;2.00;;
76115;SDS011;64847;45.778;12.802;2023-04-19T06:56:09;2.30;;;2.20;;
76115;SDS011;64847;45.778;12.802;2023-04-19T06:58:34;2.25;;;2.10;;
76115;SDS011;64847;45.778;12.802;2023-04-19T07:01:01;2.50;;;2.33;;
76115;SDS011;64847;45.778;12.802;2023-04-19T07:03:28;2.65;;;2.45;;
76115;SDS011;64847;45.778;12.802;2023-04-19T07:05:53;2.70;;;2.40;;
76115;SDS011;64847;45.778;12.802;2023-04-19T07:08:20;2.40;;;2.30;;
76115;SDS011;64847;45.778;12.802;2023-04-19T07:10:47;2.58;;;2.40;;
76115;SDS011;64847;45.778;12.802;2023-04-19T07:13:12;2.22;;;2.13;;
76115;SDS011;64847;45.778;12.802;2023-04-19T07:15:37;2.40;;;2.30;;
76115;SDS011;64847;45.778;12.802;2023-04-19T07:18:03;2.42;;;2.25;;
76115;SDS011;64847;45.778;12.802;2023-04-19T07:20:28;2.70;;;2.60;;
76115;SDS011;64847;45.778;12.802;2023-04-19T07:22:56;2.40;;;2.30;;
76115;SDS011;64847;45.778;12.802;2023-04-19T07:25:22;2.35;;;2.25;;
76115;SDS011;64847;45.778;12.802;2023-04-19T07:27:48;2.20;;;2.10;;
76115;SDS011;64847;45.778;12.802;2023-04-19T07:30:13;2.25;;;2.15;;
76115;SDS011;64847;45.778;12.802;2023-04-19T07:32:38;2.60;;;2.50;;
76115;SDS011;64847;45.778;12.802;2023-04-19T07:35:04;2.45;;;2.20;;
76115;SDS011;64847;45.778;12.802;2023-04-19T07:37:31;2.50;;;2.40;;
76115;SDS011;64847;45.778;12.802;2023-04-19T07:39:56;2.15;;;2.05;;
76115;SDS011;64847;45.778;12.802;2023-04-19T07:42:23;1.98;;;1.88;;
76115;SDS011;64847;45.778;12.802;2023-04-19T07:44:48;1.92;;;1.83;;
76115;SDS011;64847;45.778;12.802;2023-04-19T07:47:14;1.90;;;1.80;;
76115;SDS011;64847;45.778;12.802;2023-04-19T07:49:39;1.60;;;1.55;;
76115;SDS011;64847;45.778;12.802;2023-04-19T07:52:08;1.73;;;1.73;;
76115;SDS011;64847;45.778;12.802;2023-04-19T07:54:34;1.75;;;1.65;;
76115;SDS011;64847;45.778;12.802;2023-04-19T07:57:00;2.20;;;1.92;;
76115;SDS011;64847;45.778;12.802;2023-04-19T07:59:26;1.88;;;1.77;;
76115;SDS011;64847;45.778;12.802;2023-04-19T08:01:51;1.60;;;1.50;;
76115;SDS011;64847;45.778;12.802;2023-04-19T08:04:17;2.10;;;2.00;;
76115;SDS011;64847;45.778;12.802;2023-04-19T08:06:44;1.60;;;1.60;;
76115;SDS011;64847;45.778;12.802;2023-04-19T08:09:09;1.48;;;1.48;;
76115;SDS011;64847;45.778;12.802;2023-04-19T08:11:35;1.90;;;1.80;;
76115;SDS011;64847;45.778;12.802;2023-04-19T08:14:00;1.60;;;1.60;;
76115;SDS011;64847;45.778;12.802;2023-04-19T08:16:26;1.73;;;1.67;;
76115;SDS011;64847;45.778;12.802;2023-04-19T08:18:52;1.50;;;1.50;;
76115;SDS011;64847;45.778;12.802;2023-04-19T08:21:17;1.80;;;1.70;;
76115;SDS011;64847;45.778;12.802;2023-04-19T08:23:43;1.70;;;1.70;;
76115;SDS011;64847;45.778;12.802;2023-04-19T08:26:08;2.20;;;2.00;;
76115;SDS011;64847;45.778;12.802;2023-04-19T08:28:34;1.83;;;1.73;;
76115;SDS011;64847;45.778;12.802;2023-04-19T08:30:59;1.52;;;1.52;;
76115;SDS011;64847;45.778;12.802;2023-04-19T08:33:24;1.60;;;1.60;;
76115;SDS011;64847;45.778;12.802;2023-04-19T08:35:50;1.70;;;1.60;;
76115;SDS011;64847;45.778;12.802;2023-04-19T08:38:15;1.70;;;1.70;;
76115;SDS011;64847;45.778;12.802;2023-04-19T08:40:44;1.52;;;1.52;;
76115;SDS011;64847;45.778;12.802;2023-04-19T08:43:11;1.50;;;1.50;;
76115;SDS011;64847;45.778;12.802;2023-04-19T08:45:37;1.90;;;1.80;;
76115;SDS011;64847;45.778;12.802;2023-04-19T08:48:03;1.90;;;1.80;;
76115;SDS011;64847;45.778;12.802;2023-04-19T08:50:29;1.70;;;1.70;;
76115;SDS011;64847;45.778;12.802;2023-04-19T08:52:56;1.73;;;1.70;;
76115;SDS011;64847;45.778;12.802;2023-04-19T08:55:23;1.50;;;1.50;;
76115;SDS011;64847;45.778;12.802;2023-04-19T08:57:49;1.67;;;1.58;;
76115;SDS011;64847;45.778;12.802;2023-04-19T09:00:14;1.98;;;1.80;;
76115;SDS011;64847;45.778;12.802;2023-04-19T09:02:47;1.85;;;1.75;;
76115;SDS011;64847;45.778;12.802;2023-04-19T09:05:15;2.67;;;1.80;;
76115;SDS011;64847;45.778;12.802;2023-04-19T09:07:42;2.05;;;1.90;;
76115;SDS011;64847;45.778;12.802;2023-04-19T09:12:35;1.60;;;1.60;;
76115;SDS011;64847;45.778;12.802;2023-04-19T09:15:01;1.83;;;1.73;;
76115;SDS011;64847;45.778;12.802;2023-04-19T09:17:32;2.00;;;1.90;;
76115;SDS011;64847;45.778;12.802;2023-04-19T09:19:58;2.00;;;1.90;;
76115;SDS011;64847;45.778;12.802;2023-04-19T09:22:24;1.83;;;1.80;;
76115;SDS011;64847;45.778;12.802;2023-04-19T09:24:50;1.83;;;1.77;;
76115;SDS011;64847;45.778;12.802;2023-04-19T09:27:24;2.05;;;1.95;;
76115;SDS011;64847;45.778;12.802;2023-04-19T09:29:54;2.13;;;2.03;;
76115;SDS011;64847;45.778;12.802;2023-04-19T09:32:24;1.95;;;1.85;;
76115;SDS011;64847;45.778;12.802;2023-04-19T09:34:52;1.88;;;1.88;;
76115;SDS011;64847;45.778;12.802;2023-04-19T09:37:22;1.52;;;1.52;;
76115;SDS011;64847;45.778;12.802;2023-04-19T09:39:49;1.80;;;1.70;;
76115;SDS011;64847;45.778;12.802;2023-04-19T09:42:14;1.88;;;1.77;;
76115;SDS011;64847;45.778;12.802;2023-04-19T09:44:54;1.60;;;1.50;;
76115;SDS011;64847;45.778;12.802;2023-04-19T09:47:24;1.80;;;1.70;;
76115;SDS011;64847;45.778;12.802;2023-04-19T09:50:06;1.63;;;1.63;;
76115;SDS011;64847;45.778;12.802;2023-04-19T09:52:33;2.22;;;2.13;;
76115;SDS011;64847;45.778;12.802;2023-04-19T09:55:00;2.60;;;2.40;;
76115;SDS011;64847;45.778;12.802;2023-04-19T09:57:28;2.13;;;2.03;;
76115;SDS011;64847;45.778;12.802;2023-04-19T09:59:54;2.20;;;2.10;;
76115;SDS011;64847;45.778;12.802;2023-04-19T10:02:19;2.10;;;2.00;;
76115;SDS011;64847;45.778;12.802;2023-04-19T10:04:46;2.17;;;2.08;;
76115;SDS011;64847;45.778;12.802;2023-04-19T10:07:12;2.20;;;2.10;;
76115;SDS011;64847;45.778;12.802;2023-04-19T10:09:37;1.95;;;1.85;;
76115;SDS011;64847;45.778;12.802;2023-04-19T10:12:03;1.80;;;1.80;;
76115;SDS011;64847;45.778;12.802;2023-04-19T10:14:30;2.08;;;1.98;;
76115;SDS011;64847;45.778;12.802;2023-04-19T10:17:00;2.10;;;2.00;;
76115;SDS011;64847;45.778;12.802;2023-04-19T10:19:26;2.17;;;2.08;;
76115;SDS011;64847;45.778;12.802;2023-04-19T10:21:52;1.70;;;1.70;;
76115;SDS011;64847;45.778;12.802;2023-04-19T10:24:18;1.90;;;1.80;;
76115;SDS011;64847;45.778;12.802;2023-04-19T10:32:27;1.88;;;1.77;;
76115;SDS011;64847;45.778;12.802;2023-04-19T10:34:54;1.85;;;1.80;;
76115;SDS011;64847;45.778;12.802;2023-04-19T10:37:23;2.08;;;1.90;;
76115;SDS011;64847;45.778;12.802;2023-04-19T10:39:50;2.08;;;1.98;;
76115;SDS011;64847;45.778;12.802;2023-04-19T10:42:15;2.15;;;2.05;;
76115;SDS011;64847;45.778;12.802;2023-04-19T10:44:41;2.10;;;2.00;;
76115;SDS011;64847;45.778;12.802;2023-04-19T10:47:06;2.10;;;1.92;;
76115;SDS011;64847;45.778;12.802;2023-04-19T10:49:37;1.95;;;1.90;;
76115;SDS011;64847;45.778;12.802;2023-04-19T10:52:24;1.90;;;1.80;;
76115;SDS011;64847;45.778;12.802;2023-04-19T10:54:54;2.20;;;2.10;;
76115;SDS011;64847;45.778;12.802;2023-04-19T10:57:20;2.10;;;1.90;;
76115;SDS011;64847;45.778;12.802;2023-04-19T10:59:45;2.30;;;2.20;;
76115;SDS011;64847;45.778;12.802;2023-04-19T11:02:44;2.20;;;2.10;;
76115;SDS011;64847;45.778;12.802;2023-04-19T11:05:10;2.28;;;2.17;;
76115;SDS011;64847;45.778;12.802;2023-04-19T11:07:38;1.75;;;1.75;;
76115;SDS011;64847;45.778;12.802;2023-04-19T11:10:04;2.25;;;2.15;;
76115;SDS011;64847;45.778;12.802;2023-04-19T11:12:31;2.97;;;2.25;;
76115;SDS011;64847;45.778;12.802;2023-04-19T11:14:57;2.53;;;2.13;;
76115;SDS011;64847;45.778;12.802;2023-04-19T11:17:30;2.20;;;2.10;;
76115;SDS011;64847;45.778;12.802;2023-04-19T11:20:03;2.40;;;2.20;;
76115;SDS011;64847;45.778;12.802;2023-04-19T11:27:31;1.95;;;1.85;;
76115;SDS011;64847;45.778;12.802;2023-04-19T11:30:04;1.98;;;1.88;;
76115;SDS011;64847;45.778;12.802;2023-04-19T11:32:31;1.70;;;1.70;;
76115;SDS011;64847;45.778;12.802;2023-04-19T11:34:57;1.85;;;1.77;;
76115;SDS011;64847;45.778;12.802;2023-04-19T11:37:22;1.73;;;1.73;;
76115;SDS011;64847;45.778;12.802;2023-04-19T11:39:47;1.60;;;1.60;;
76115;SDS011;64847;45.778;12.802;2023-04-19T11:42:16;1.73;;;1.63;;
76115;SDS011;64847;45.778;12.802;2023-04-19T11:44:48;1.70;;;1.70;;
76115;SDS011;64847;45.778;12.802;2023-04-19T11:47:14;2.38;;;2.10;;
76115;SDS011;64847;45.778;12.802;2023-04-19T11:49:40;2.50;;;1.90;;
76115;SDS011;64847;45.778;12.802;2023-04-19T11:52:05;1.95;;;1.90;;
76115;SDS011;64847;45.778;12.802;2023-04-19T11:54:31;2.10;;;1.88;;
76115;SDS011;64847;45.778;12.802;2023-04-19T11:57:06;2.17;;;1.83;;
76115;SDS011;64847;45.778;12.802;2023-04-19T11:59:32;2.30;;;2.10;;
76115;SDS011;64847;45.778;12.802;2023-04-19T12:02:09;2.13;;;2.03;;
76115;SDS011;64847;45.778;12.802;2023-04-19T12:04:36;1.85;;;1.75;;
76115;SDS011;64847;45.778;12.802;2023-04-19T12:07:02;2.55;;;2.13;;
76115;SDS011;64847;45.778;12.802;2023-04-19T12:09:28;1.85;;;1.77;;
76115;SDS011;64847;45.778;12.802;2023-04-19T12:11:54;2.20;;;2.10;;
76115;SDS011;64847;45.778;12.802;2023-04-19T12:14:20;2.20;;;2.10;;
76115;SDS011;64847;45.778;12.802;2023-04-19T12:19:47;2.10;;;2.00;;
76115;SDS011;64847;45.778;12.802;2023-04-19T12:22:14;2.00;;;1.90;;
76115;SDS011;64847;45.778;12.802;2023-04-19T12:24:40;2.08;;;1.98;;
76115;SDS011;64847;45.778;12.802;2023-04-19T12:27:08;2.63;;;2.42;;
76115;SDS011;64847;45.778;12.802;2023-04-19T12:29:34;1.90;;;1.90;;
76115;SDS011;64847;45.778;12.802;2023-04-19T12:32:00;2.17;;;2.08;;
76115;SDS011;64847;45.778;12.802;2023-04-19T12:34:25;2.00;;;1.90;;
76115;SDS011;64847;45.778;12.802;2023-04-19T12:36:51;2.25;;;2.05;;
76115;SDS011;64847;45.778;12.802;2023-04-19T12:39:17;3.00;;;2.13;;
76115;SDS011;64847;45.778;12.802;2023-04-19T12:41:42;1.95;;;1.85;;
76115;SDS011;64847;45.778;12.802;2023-04-19T12:44:08;2.38;;;2.28;;
76115;SDS011;64847;45.778;12.802;2023-04-19T12:46:33;2.03;;;1.92;;
76115;SDS011;64847;45.778;12.802;2023-04-19T12:48:59;2.03;;;1.90;;
76115;SDS011;64847;45.778;12.802;2023-04-19T12:51:24;2.15;;;2.05;;
76115;SDS011;64847;45.778;12.802;2023-04-19T12:53:51;1.77;;;1.77;;
76115;SDS011;64847;45.778;12.802;2023-04-19T12:56:16;2.30;;;2.10;;
76115;SDS011;64847;45.778;12.802;2023-04-19T12:58:42;2.00;;;1.90;;
76115;SDS011;64847;45.778;12.802;2023-04-19T13:01:07;1.83;;;1.73;;
76115;SDS011;64847;45.778;12.802;2023-04-19T13:03:33;2.03;;;1.92;;
76115;SDS011;64847;45.778;12.802;2023-04-19T13:06:03;2.00;;;1.90;;
76115;SDS011;64847;45.778;12.802;2023-04-19T13:08:29;1.85;;;1.85;;
76115;SDS011;64847;45.778;12.802;2023-04-19T13:10:54;1.80;;;1.70;;
76115;SDS011;64847;45.778;12.802;2023-04-19T13:13:20;1.83;;;1.73;;
76115;SDS011;64847;45.778;12.802;2023-04-19T13:15:46;2.00;;;1.90;;
76115;SDS011;64847;45.778;12.802;2023-04-19T13:18:11;1.77;;;1.75;;
76115;SDS011;64847;45.778;12.802;2023-04-19T13:20:36;1.73;;;1.63;;
76115;SDS011;64847;45.778;12.802;2023-04-19T13:23:02;1.60;;;1.60;;
76115;SDS011;64847;45.778;12.802;2023-04-19T13:25:27;1.75;;;1.75;;
76115;SDS011;64847;45.778;12.802;2023-04-19T13:27:53;1.75;;;1.65;;
76115;SDS011;64847;45.778;12.802;2023-04-19T13:30:18;1.70;;;1.60;;
76115;SDS011;64847;45.778;12.802;2023-04-19T13:32:43;1.70;;;1.60;;
76115;SDS011;64847;45.778;12.802;2023-04-19T13:35:09;1.90;;;1.83;;
76115;SDS011;64847;45.778;12.802;2023-04-19T13:37:34;2.33;;;2.10;;
76115;SDS011;64847;45.778;12.802;2023-04-19T13:39:59;2.10;;;1.90;;
76115;SDS011;64847;45.778;12.802;2023-04-19T13:42:25;2.00;;;1.90;;
76115;SDS011;64847;45.778;12.802;2023-04-19T13:44:52;1.90;;;1.80;;
76115;SDS011;64847;45.778;12.802;2023-04-19T13:47:17;1.80;;;1.80;;
76115;SDS011;64847;45.778;12.802;2023-04-19T13:49:43;2.17;;;2.08;;
76115;SDS011;64847;45.778;12.802;2023-04-19T13:52:08;2.40;;;2.30;;
76115;SDS011;64847;45.778;12.802;2023-04-19T13:54:35;1.85;;;1.75;;
76115;SDS011;64847;45.778;12.802;2023-04-19T13:57:00;2.85;;;2.22;;
76115;SDS011;64847;45.778;12.802;2023-04-19T13:59:26;1.90;;;1.80;;
76115;SDS011;64847;45.778;12.802;2023-04-19T14:01:53;1.80;;;1.75;;
76115;SDS011;64847;45.778;12.802;2023-04-19T14:04:19;2.42;;;2.30;;
76115;SDS011;64847;45.778;12.802;2023-04-19T14:06:45;2.00;;;1.90;;
76115;SDS011;64847;45.778;12.802;2023-04-19T14:09:11;2.45;;;2.22;;
76115;SDS011;64847;45.778;12.802;2023-04-19T14:11:36;2.53;;;2.42;;
76115;SDS011;64847;45.778;12.802;2023-04-19T14:14:02;2.20;;;2.10;;
76115;SDS011;64847;45.778;12.802;2023-04-19T14:16:28;2.70;;;2.50;;
76115;SDS011;64847;45.778;12.802;2023-04-19T14:18:53;2.08;;;1.98;;
76115;SDS011;64847;45.778;12.802;2023-04-19T14:21:19;3.20;;;2.50;;
76115;SDS011;64847;45.778;12.802;2023-04-19T14:23:44;2.60;;;2.40;;
76115;SDS011;64847;45.778;12.802;2023-04-19T14:26:09;2.15;;;2.05;;
76115;SDS011;64847;45.778;12.802;2023-04-19T14:28:35;2.13;;;2.03;;
76115;SDS011;64847;45.778;12.802;2023-04-19T14:31:00;2.30;;;2.20;;
76115;SDS011;64847;45.778;12.802;2023-04-19T14:33:26;2.30;;;2.20;;
76115;SDS011;64847;45.778;12.802;2023-04-19T14:35:51;3.10;;;2.90;;
76115;SDS011;64847;45.778;12.802;2023-04-19T14:38:16;2.50;;;2.40;;
76115;SDS011;64847;45.778;12.802;2023-04-19T14:40:42;3.13;;;2.45;;
76115;SDS011;64847;45.778;12.802;2023-04-19T14:43:07;2.67;;;2.20;;